Abbott, NM

5:30 AM MDT on September 17, 2014 (GMT -0600)
Clayton Municipal | Change Station
CLOSE
Current Station
Airport
Location: Clayton,
Elevation: 4970 ft
Nearby Weather Stations

Elev 4970 ft 36.45 °N, 103.15 °W | Updated 35 minutes ago

Clear
Clear
60 °F
Feels Like 60 °F
N
9
Wind Variable Wind from WSW

Today
High -- | Low -- °F
--% Chance of Precip.
Yesterday
High -- | Low -- °F
Precip. -- in
6:41 AM 7:01 PM
Last Quarter, 37% visible
Pressure 29.91 in
Visibility 10.0 miles
Clouds Clear
Dew Point 56 °F
Humidity 86%
Rainfall 0.00 in
Snow Depth 0 in , 0 in , 0 in
UV 0 out of 12
Pollen 5.90 out of 12
Air Quality Not available.
Flu Activity Not available.
METAR KCAO 171055Z AUTO 24008KT 10SM CLR 16/13 A3008 RMK AO2 SLP129 T01560133

More Conditions Fewer Conditions

Pressure 29.91 in
Visibility 10.0 miles
Clouds Clear
Dew Point 56 °F
Humidity 86%
Rainfall 0.00 in
Snow Depth 0 in , 0 in , 0 in
UV 0 out of 12
Pollen 5.90 out of 12
Air Quality Not available.
Flu Activity Not available.
METAR KCAO 171055Z AUTO 24008KT 10SM CLR 16/13 A3008 RMK AO2 SLP129 T01560133

More Conditions Fewer Conditions

10-Day Weather Forecast

Almanac

Astronomy

Sep. 17, 2014 Rise Set
Actual Time 6:41 AM MDT 7:01 PM MDT
Civil Twilight 6:15 AM MDT 7:27 PM MDT
Nautical Twilight 5:45 AM MDT 7:57 PM MDT
Astronomical Twilight 5:14 AM MDT 8:28 PM MDT
Moon 12:50 AM MDT 3:06 PM MDT
Length of Visible Light 13h 11m
Length of Day
12h 20m
Tomorrow will be 2m 18s shorter.
Last Quarter, 37% of the Moon is Illuminated
Today
Last Quarter
Sep 24
New
Oct 1
First Quarter
Oct 8
Full
Oct 15
Last Quarter

Today's Extremes

State Highs State Lows

Community

WunderPhotos

Upload Photos

1,754,003 photos uploaded!

Nearby

Snow Depth

Station Depth Elevation
Red River Pass #2 0 in 9850 ft
Bateman 0 in 9300 ft
McKnight Cabin 0 in 9240 ft
Tolby 0 in 10180 ft
Silver Creek Divide 2 in 9000 ft

Earthquake Activity

City Distance Mag. Time & Date
No recent earthquake activity has been reported nearby.
Minimum magnitude displayed is 2.5.

Coastal Water Temperatures

Place Temperature
No Stations Reporting

Nearby Weather Stations